Terminal Aerodrome Forecast
Issued by NWS

Home | Current Version | Previous Version | Text Only | Print | Product List | Glossary On
Versions: 1 2 3 4 5 6 7 8 9 10 11 12 13 14 15 16 17 18 19 20 21 22 23 24 25 26 27
392
FTUS43 KOAX 281033 AAB
TAFSNY
TAF AMD
KSNY 281033Z 2811/2906 12009KT P6SM VCSH BKN002 OVC050
     FM281300 01015G23KT 2SM -SNRA BR OVC007=

USA.gov is the U.S. government's official web portal to all federal, state and local government web resources and services.